Time;durP1;ratioP1;P1;durP2;ratioP2;P2;SDS_P1;SDS_P2;PMS_P1;PMS_P2;Temp;Humidity;BMP_temperature;BMP_pressure;BME280_temperature;BME280_humidity;BME280_pressure;Samples;Min_cycle;Max_cycle;Signal;HPM_P1;HPM_P2
2022/02/03 00:00:08;;;;;;;0.50;0.50;;;20.80;57.20;;;;;;5090963;28;20020;-66
2022/02/03 00:26:27;;;;;;;0.50;0.35;;;20.90;57.30;;;;;;5013395;28;20037;-65
2022/02/03 00:28:53;;;;;;;0.63;0.40;;;20.80;57.30;;;;;;5013155;28;20025;-65
2022/02/03 00:31:38;;;;;;;0.98;0.68;;;20.80;57.30;;;;;;4996715;28;20603;-66
2022/02/03 00:34:10;;;;;;;1.40;0.45;;;20.80;57.30;;;;;;5015660;28;20569;-65
2022/02/03 00:37:31;;;;;;;2.00;0.60;;;20.90;57.40;;;;;;5001121;28;20454;-65
2022/02/03 00:50:27;;;;;;;0.40;0.38;;;20.80;57.50;;;;;;5063038;28;20071;-66
2022/02/03 00:52:53;;;;;;;1.15;0.52;;;20.90;57.50;;;;;;5089783;28;20081;-65
2022/02/03 00:55:19;;;;;;;1.20;0.45;;;20.90;57.50;;;;;;5075137;28;20029;-66
2022/02/03 00:57:49;;;;;;;2.10;0.50;;;20.90;57.50;;;;;;5074874;28;20052;-66
2022/02/03 01:00:16;;;;;;;0.40;0.40;;;20.90;57.50;;;;;;5090157;28;20020;-65
2022/02/03 01:02:55;;;;;;;0.32;0.32;;;20.90;57.40;;;;;;5074842;28;20013;-66
2022/02/03 01:05:21;;;;;;;0.70;0.40;;;20.90;57.40;;;;;;5089823;28;20024;-66
2022/02/03 01:07:49;;;;;;;1.00;0.50;;;20.90;57.50;;;;;;5074254;28;20069;-66
2022/02/03 01:10:20;;;;;;;1.23;0.60;;;20.90;57.50;;;;;;5073467;28;20035;-65
2022/02/03 01:18:19;;;;;;;0.65;0.52;;;20.90;57.50;;;;;;5095034;28;20027;-65
2022/02/03 01:45:59;;;;;;;1.75;0.50;;;20.90;57.60;;;;;;5051765;28;20455;-65
2022/02/03 01:48:19;;;;;;;1.38;0.73;;;20.90;57.60;;;;;;5025138;28;20037;-65
2022/02/03 01:53:30;;;;;;;0.80;0.55;;;20.80;57.60;;;;;;5037464;28;20533;-65
2022/02/03 01:56:12;;;;;;;0.47;0.47;;;20.80;57.70;;;;;;5018827;28;20116;-65
2022/02/03 01:58:46;;;;;;;0.55;0.47;;;20.90;57.60;;;;;;5085698;28;20637;-65
2022/02/03 02:01:26;;;;;;;0.50;0.45;;;20.90;57.60;;;;;;5093803;28;20036;-65
2022/02/03 02:04:10;;;;;;;0.60;0.50;;;20.90;57.60;;;;;;5092267;28;20024;-65
2022/02/03 02:06:47;;;;;;;0.75;0.40;;;20.90;57.70;;;;;;5093740;28;20048;-65
2022/02/03 02:09:51;;;;;;;0.38;0.38;;;20.90;57.60;;;;;;5075654;28;20056;-65
2022/02/03 02:12:29;;;;;;;0.52;0.43;;;20.90;57.60;;;;;;5073435;28;20052;-66
2022/02/03 02:43:08;;;;;;;;;;;20.80;57.80;;;;;;5051356;28;20036;-65
2022/02/03 02:46:01;;;;;;;0.73;0.40;;;20.80;57.70;;;;;;5030520;28;19905;-66
2022/02/03 02:48:46;;;;;;;0.45;0.40;;;20.80;57.90;;;;;;5014730;28;20045;-65
2022/02/03 02:51:17;;;;;;;0.40;0.40;;;20.80;58.00;;;;;;5014981;28;20041;-65
2022/02/03 02:59:27;;;;;;;0.45;0.40;;;20.80;57.90;;;;;;5015915;28;20033;-65
2022/02/03 03:37:36;;;;;;;0.40;0.40;;;20.80;58.00;;;;;;5071321;28;20035;-65
2022/02/03 03:40:04;;;;;;;0.30;0.30;;;20.80;58.00;;;;;;5071000;28;20597;-65
2022/02/03 03:42:34;;;;;;;0.20;0.20;;;20.80;58.00;;;;;;5070860;28;20394;-66
2022/02/03 03:45:02;;;;;;;0.40;0.30;;;20.80;58.00;;;;;;5071816;28;20024;-65
2022/02/03 03:47:30;;;;;;;0.70;0.30;;;20.80;58.00;;;;;;5070983;28;20025;-65
2022/02/03 03:50:04;;;;;;;0.50;0.30;;;20.80;58.00;;;;;;5071024;28;20013;-65
2022/02/03 03:52:31;;;;;;;0.30;0.30;;;20.80;57.90;;;;;;5070675;28;20020;-66
2022/02/03 03:55:17;;;;;;;1.00;0.63;;;20.80;58.00;;;;;;5070923;28;20051;-65
2022/02/03 05:01:21;;;;;;;0.98;0.30;;;20.70;58.50;;;;;;5095002;28;20032;-65
2022/02/03 05:10:12;;;;;;;0.30;0.30;;;20.70;58.30;;;;;;5074752;28;20466;-65
2022/02/03 05:44:30;;;;;;;0.20;0.13;;;20.70;58.50;;;;;;5094432;28;20027;-65
2022/02/03 05:49:51;;;;;;;0.20;0.20;;;20.70;58.50;;;;;;5093236;28;20487;-65
2022/02/03 06:23:59;;;;;;;0.10;0.10;;;20.80;58.60;;;;;;4953292;28;20039;-66
2022/02/03 06:29:15;;;;;;;0.45;0.10;;;20.80;58.70;;;;;;4958071;28;20533;-65
2022/02/03 06:31:46;;;;;;;0.15;0.10;;;20.70;57.70;;;;;;4968394;28;20049;-65
2022/02/03 06:34:12;;;;;;;0.40;0.10;;;20.60;57.40;;;;;;4956979;28;20023;-65
2022/02/03 06:36:38;;;;;;;0.20;0.20;;;20.50;57.40;;;;;;4963136;28;20098;-65
2022/02/03 06:39:14;;;;;;;0.40;0.20;;;20.50;57.50;;;;;;4997491;28;20041;-65
2022/02/03 06:41:39;;;;;;;0.10;0.10;;;20.40;57.20;;;;;;5015901;28;20029;-65
2022/02/03 06:44:05;;;;;;;0.10;0.10;;;20.40;57.50;;;;;;5031036;28;20034;-65
2022/02/03 06:46:32;;;;;;;0.13;0.10;;;20.30;57.40;;;;;;5030685;28;20026;-65
2022/02/03 06:49:10;;;;;;;0.17;0.17;;;20.30;57.40;;;;;;5034950;28;20029;-65
2022/02/03 06:51:39;;;;;;;0.35;0.20;;;20.30;57.40;;;;;;5092066;28;20497;-65
2022/02/03 06:54:15;;;;;;;0.20;0.20;;;20.20;57.30;;;;;;5091629;28;20407;-65
2022/02/03 06:56:49;;;;;;;0.10;0.10;;;20.20;57.30;;;;;;5091705;28;20016;-65
2022/02/03 06:59:20;;;;;;;0.40;0.20;;;20.20;57.30;;;;;;5092951;28;20028;-65
2022/02/03 07:01:45;;;;;;;0.20;0.20;;;20.20;57.30;;;;;;5092687;28;20105;-65
2022/02/03 07:04:18;;;;;;;0.20;0.10;;;20.10;57.20;;;;;;5092869;28;20105;-65
2022/02/03 07:06:43;;;;;;;0.10;0.10;;;20.10;57.30;;;;;;5092844;28;20023;-65
2022/02/03 07:09:10;;;;;;;0.70;0.20;;;20.10;57.20;;;;;;5075167;28;20407;-64
2022/02/03 07:11:38;;;;;;;0.10;0.10;;;20.10;57.20;;;;;;5071968;28;20502;-65
2022/02/03 07:14:06;;;;;;;0.28;0.28;;;20.00;57.10;;;;;;5083655;28;20440;-64
2022/02/03 07:16:34;;;;;;;0.22;0.10;;;20.00;57.10;;;;;;5091082;28;20074;-65
2022/02/03 07:19:00;;;;;;;2.20;0.25;;;20.00;57.10;;;;;;5088660;28;20039;-65
2022/02/03 07:21:26;;;;;;;2.47;0.65;;;20.00;57.10;;;;;;5079049;28;20024;-65
2022/02/03 07:23:51;;;;;;;7.50;1.10;;;20.00;57.10;;;;;;5081302;28;20039;-65
2022/02/03 07:26:17;;;;;;;12.15;2.03;;;20.00;57.10;;;;;;5086225;28;20020;-65
2022/02/03 07:28:43;;;;;;;14.65;2.08;;;20.00;57.20;;;;;;5074509;28;20021;-64
2022/02/03 07:31:08;;;;;;;11.07;1.92;;;20.00;57.20;;;;;;5070502;28;20060;-64
2022/02/03 07:33:34;;;;;;;13.35;2.13;;;20.00;57.20;;;;;;5072168;28;20453;-64
2022/02/03 07:36:00;;;;;;;6.35;1.63;;;20.00;57.20;;;;;;5070949;28;20029;-64
2022/02/03 07:38:25;;;;;;;4.53;1.17;;;20.00;57.30;;;;;;5070846;28;20036;-64
2022/02/03 07:40:51;;;;;;;10.45;1.55;;;20.00;57.30;;;;;;5071900;28;20502;-64
2022/02/03 07:43:17;;;;;;;8.52;1.35;;;20.00;57.20;;;;;;5071138;28;20527;-64
2022/02/03 07:45:42;;;;;;;9.23;1.52;;;20.00;57.30;;;;;;5077721;28;20099;-64
2022/02/03 07:48:08;;;;;;;7.55;1.20;;;20.00;57.30;;;;;;5077552;28;20104;-64
2022/02/03 07:50:34;;;;;;;4.60;1.45;;;20.00;57.30;;;;;;5083731;28;20028;-64
2022/02/03 07:53:00;;;;;;;7.70;1.83;;;20.00;57.30;;;;;;5092760;28;20043;-64
2022/02/03 07:55:25;;;;;;;7.97;1.73;;;20.00;57.30;;;;;;5079432;28;20020;-64
2022/02/03 07:57:52;;;;;;;7.47;1.67;;;19.90;57.30;;;;;;5081150;28;20020;-64
2022/02/03 08:00:20;;;;;;;6.35;1.58;;;20.00;57.30;;;;;;5097664;28;20076;-64
2022/02/03 08:02:45;;;;;;;5.00;1.45;;;20.00;57.30;;;;;;5099021;28;20024;-64
2022/02/03 08:05:13;;;;;;;6.03;1.63;;;19.90;57.30;;;;;;5098790;28;20454;-64
2022/02/03 08:07:55;;;;;;;6.22;1.40;;;19.90;57.30;;;;;;5083887;28;20020;-64
2022/02/03 08:10:37;;;;;;;6.70;1.48;;;19.90;57.20;;;;;;5077481;28;20394;-64
2022/02/03 08:13:05;;;;;;;6.25;1.52;;;19.90;57.30;;;;;;5077463;28;20039;-63
2022/02/03 08:15:33;;;;;;;2.88;1.58;;;19.90;57.30;;;;;;5078673;28;20025;-64
2022/02/03 08:18:04;;;;;;;7.00;1.58;;;19.80;57.30;;;;;;5078241;28;20028;-64
2022/02/03 08:20:30;;;;;;;8.45;1.48;;;19.80;57.30;;;;;;5078185;28;20043;-64
2022/02/03 08:23:24;;;;;;;7.80;1.20;;;19.80;57.30;;;;;;5078248;28;20016;-64
2022/02/03 08:25:52;;;;;;;3.63;1.27;;;19.80;57.20;;;;;;5077099;28;20402;-63
2022/02/03 08:31:08;;;;;;;3.08;1.00;;;19.80;57.30;;;;;;5078063;28;20068;-64
2022/02/03 08:33:34;;;;;;;6.32;1.23;;;19.80;57.30;;;;;;5078556;28;20032;-64
2022/02/03 08:36:03;;;;;;;5.43;1.20;;;19.80;57.30;;;;;;5076446;28;20028;-64
2022/02/03 08:41:03;;;;;;;3.97;1.15;;;19.80;57.30;;;;;;5076883;28;20108;-64
2022/02/03 08:43:30;;;;;;;7.00;1.03;;;19.80;57.30;;;;;;5077527;28;20509;-64
2022/02/03 08:45:57;;;;;;;2.97;0.90;;;19.80;57.30;;;;;;5078058;28;20028;-64
2022/02/03 08:48:23;;;;;;;4.80;0.93;;;19.80;57.20;;;;;;5078317;28;20008;-64
2022/02/03 08:50:49;;;;;;;3.30;1.27;;;19.80;57.20;;;;;;5076549;28;20028;-64
2022/02/03 10:00:43;;;;;;;1.02;0.57;;;19.60;57.20;;;;;;4972856;28;20046;-64
2022/02/03 10:03:14;;;;;;;3.70;0.80;;;19.70;57.30;;;;;;4976761;28;20034;-64
2022/02/03 10:06:11;;;;;;;2.75;0.77;;;19.60;57.20;;;;;;4992501;28;20050;-64
2022/02/03 10:08:37;;;;;;;1.85;0.70;;;19.70;57.30;;;;;;4992192;28;20031;-64
2022/02/03 10:11:11;;;;;;;2.83;1.10;;;19.60;57.30;;;;;;4992032;28;20038;-64
2022/02/03 10:13:41;;;;;;;3.15;0.93;;;19.70;57.30;;;;;;4975920;28;20061;-64
2022/02/03 10:16:07;;;;;;;2.78;0.57;;;19.70;57.20;;;;;;5054248;28;20036;-64
2022/02/03 10:18:32;;;;;;;2.05;0.65;;;19.70;57.20;;;;;;5071966;28;20368;-64
2022/02/03 10:21:00;;;;;;;3.67;0.60;;;19.70;57.20;;;;;;5073177;28;20070;-64
2022/02/03 10:23:27;;;;;;;1.45;0.70;;;19.70;58.10;;;;;;5073549;28;20025;-64
2022/02/03 10:25:57;;;;;;;1.60;0.50;;;19.70;57.20;;;;;;5073011;28;20024;-64
2022/02/03 10:28:24;;;;;;;1.52;0.95;;;19.70;57.20;;;;;;5072048;28;20021;-64
2022/02/03 10:31:00;;;;;;;0.95;0.38;;;19.70;57.20;;;;;;5071845;28;20041;-64
2022/02/03 10:33:34;;;;;;;0.95;0.50;;;19.70;57.20;;;;;;5073113;28;20171;-64
2022/02/03 10:36:06;;;;;;;1.63;0.47;;;19.70;57.20;;;;;;5072933;28;20487;-64
2022/02/03 10:39:06;;;;;;;1.73;0.60;;;19.70;57.20;;;;;;5071981;28;20031;-64
2022/02/03 10:41:58;;;;;;;2.08;0.82;;;19.60;57.10;;;;;;5072881;28;20024;-64
2022/02/03 10:55:30;;;;;;;1.73;0.52;;;19.60;57.20;;;;;;5071466;28;20060;-64
2022/02/03 10:58:11;;;;;;;0.70;0.30;;;19.60;57.10;;;;;;5077880;28;20114;-64
2022/02/03 11:00:57;;;;;;;1.50;0.82;;;19.60;57.10;;;;;;5091416;28;20413;-64
2022/02/03 11:03:37;;;;;;;1.40;0.60;;;19.60;57.20;;;;;;5091704;28;20035;-64
2022/02/03 11:11:33;;;;;;;1.77;0.45;;;19.60;57.10;;;;;;5091649;28;20024;-64
2022/02/03 11:13:58;;;;;;;0.95;0.47;;;19.60;57.10;;;;;;5091664;28;20024;-64
2022/02/03 11:16:24;;;;;;;0.63;0.40;;;19.60;57.10;;;;;;5091173;28;20493;-64
2022/02/03 11:18:49;;;;;;;0.93;0.50;;;19.60;57.10;;;;;;5090904;28;20020;-64
2022/02/03 11:21:15;;;;;;;1.20;0.52;;;19.60;57.10;;;;;;5091015;28;20020;-64
2022/02/03 11:23:48;;;;;;;0.55;0.40;;;19.60;57.10;;;;;;5092585;28;20542;-63
2022/02/03 11:53:54;;;;;;;1.08;0.40;;;19.50;57.10;;;;;;5030012;28;20072;-64
2022/02/03 12:26:12;;;;;;;0.82;0.40;;;19.60;56.90;;;;;;5071640;28;20028;-64
2022/02/03 12:28:49;;;;;;;0.65;0.25;;;19.50;57.00;;;;;;5070361;28;20070;-64
2022/02/03 12:39:20;;;;;;;1.02;0.40;;;19.50;56.90;;;;;;5075414;28;20052;-64
2022/02/03 12:42:01;;;;;;;0.40;0.30;;;19.50;56.90;;;;;;5074011;28;20075;-63
2022/02/03 12:44:28;;;;;;;1.67;0.32;;;19.50;56.90;;;;;;5075373;28;20023;-64
2022/02/03 12:46:55;;;;;;;0.63;0.40;;;19.50;57.00;;;;;;5074174;28;20035;-64
2022/02/03 12:49:21;;;;;;;0.47;0.20;;;19.50;56.90;;;;;;5073913;28;20028;-64
2022/02/03 12:51:48;;;;;;;0.32;0.30;;;19.60;57.00;;;;;;5075009;28;20433;-64
2022/02/03 12:54:15;;;;;;;0.95;0.40;;;19.60;57.90;;;;;;5073796;28;20107;-64
2022/02/03 12:56:41;;;;;;;1.92;0.40;;;19.60;56.90;;;;;;5073759;28;20016;-64
2022/02/03 12:59:09;;;;;;;0.50;0.30;;;19.60;56.90;;;;;;5090093;28;20038;-64
2022/02/03 13:01:38;;;;;;;1.02;0.30;;;19.60;56.90;;;;;;5094099;28;20020;-64
2022/02/03 13:04:10;;;;;;;0.50;0.22;;;19.60;56.90;;;;;;5094898;28;20020;-64
2022/02/03 13:06:41;;;;;;;0.38;0.38;;;19.60;56.90;;;;;;5094050;28;20039;-64
2022/02/03 13:09:09;;;;;;;0.68;0.50;;;19.50;56.80;;;;;;5093885;28;20023;-64
2022/02/03 13:20:01;;;;;;;0.85;0.40;;;19.60;56.90;;;;;;5080756;28;20093;-64
2022/02/03 13:33:14;;;;;;;0.73;0.30;;;19.60;56.70;;;;;;5082824;28;20313;-64
2022/02/03 13:38:27;;;;;;;0.63;0.30;;;19.50;56.90;;;;;;5093505;28;20024;-64
2022/02/03 13:41:10;;;;;;;0.65;0.30;;;19.50;56.80;;;;;;5094047;28;20020;-64
2022/02/03 13:43:38;;;;;;;0.40;0.30;;;19.50;56.80;;;;;;5093995;28;20020;-64
2022/02/03 13:46:04;;;;;;;0.50;0.30;;;19.50;56.80;;;;;;5093252;28;20023;-64
2022/02/03 13:48:30;;;;;;;0.70;0.38;;;19.50;56.80;;;;;;5092984;28;20024;-64
2022/02/03 13:51:00;;;;;;;0.22;0.22;;;19.50;56.80;;;;;;5076865;28;20029;-64
2022/02/03 13:53:43;;;;;;;0.40;0.28;;;19.50;56.80;;;;;;5073945;28;20028;-64
2022/02/03 14:18:59;;;;;;;0.55;0.32;;;19.50;56.90;;;;;;5034684;28;20033;-64
2022/02/03 14:29:08;;;;;;;0.30;0.20;;;19.50;56.70;;;;;;5051338;28;20092;-64
2022/02/03 14:31:35;;;;;;;0.65;0.28;;;19.50;56.80;;;;;;5051104;28;20503;-64
2022/02/03 14:34:06;;;;;;;0.70;0.20;;;19.50;56.80;;;;;;5034683;28;20033;-64
2022/02/03 14:36:33;;;;;;;0.35;0.20;;;19.50;56.80;;;;;;5050787;28;20044;-64
2022/02/03 14:39:21;;;;;;;0.20;0.20;;;19.50;56.70;;;;;;5050671;28;20507;-64
2022/02/03 14:41:48;;;;;;;0.20;0.20;;;19.50;56.70;;;;;;5037360;28;20376;-64
2022/02/03 14:44:16;;;;;;;0.25;0.20;;;19.50;56.70;;;;;;5034271;28;20037;-64
2022/02/03 14:46:42;;;;;;;0.35;0.20;;;19.50;56.70;;;;;;5034477;28;20021;-64
2022/02/03 14:49:09;;;;;;;0.35;0.20;;;19.60;56.70;;;;;;5056708;28;20038;-64
2022/02/03 14:51:45;;;;;;;0.38;0.38;;;19.50;56.70;;;;;;5072605;28;20028;-64
2022/02/03 14:59:36;;;;;;;0.28;0.22;;;19.50;56.70;;;;;;5092081;28;20034;-64
2022/02/03 15:02:07;;;;;;;0.88;0.30;;;19.60;56.70;;;;;;5091858;28;20020;-64
2022/02/03 15:04:33;;;;;;;0.63;0.30;;;19.50;56.60;;;;;;5091488;28;20019;-64
2022/02/03 15:07:02;;;;;;;0.77;0.30;;;19.50;56.70;;;;;;5092417;28;20023;-63
2022/02/03 15:14:48;;;;;;;0.28;0.20;;;19.50;56.60;;;;;;5034348;28;20029;-64
2022/02/03 15:17:14;;;;;;;0.30;0.20;;;19.50;56.60;;;;;;5050146;28;20033;-64
2022/02/03 15:19:39;;;;;;;0.43;0.20;;;19.60;56.60;;;;;;5050214;28;20049;-64
2022/02/03 15:22:05;;;;;;;0.30;0.30;;;19.60;56.60;;;;;;5050087;28;20037;-64
2022/02/03 15:24:31;;;;;;;0.73;0.40;;;19.50;56.60;;;;;;5050120;28;20033;-64
2022/02/03 15:26:59;;;;;;;0.20;0.20;;;19.60;56.60;;;;;;5050177;28;20101;-64
2022/02/03 15:29:26;;;;;;;0.43;0.30;;;19.60;56.60;;;;;;5049894;28;20047;-64
2022/02/03 15:31:52;;;;;;;0.75;0.30;;;19.60;56.60;;;;;;5033575;28;20071;-63
2022/02/03 15:34:21;;;;;;;0.10;0.10;;;19.50;56.50;;;;;;5033476;28;20033;-64
2022/02/03 15:36:51;;;;;;;1.08;0.30;;;19.60;56.60;;;;;;5049894;28;20497;-64
2022/02/03 15:39:22;;;;;;;0.20;0.20;;;19.60;56.60;;;;;;5034010;28;20100;-64
2022/02/03 15:41:49;;;;;;;0.70;0.20;;;19.60;56.60;;;;;;5049981;28;20037;-64
2022/02/03 15:44:15;;;;;;;0.20;0.20;;;19.60;56.60;;;;;;5017399;28;20438;-64
2022/02/03 15:46:48;;;;;;;0.80;0.20;;;19.60;56.50;;;;;;5049883;28;20479;-64
2022/02/03 15:49:36;;;;;;;0.63;0.20;;;19.60;56.50;;;;;;5071170;28;20039;-64
2022/02/03 16:03:45;;;;;;;0.10;0.10;;;19.50;56.60;;;;;;5091331;28;20027;-64
2022/02/03 16:17:03;;;;;;;0.10;0.10;;;19.50;56.60;;;;;;4974774;28;20033;-64
2022/02/03 16:19:38;;;;;;;0.50;0.28;;;19.50;56.60;;;;;;4974440;28;20030;-64
2022/02/03 16:22:18;;;;;;;0.28;0.22;;;19.50;56.60;;;;;;4974970;28;20055;-64
2022/02/03 16:25:31;;;;;;;0.10;0.10;;;19.50;56.60;;;;;;4974709;28;20123;-64
2022/02/03 16:52:35;;;;;;;0.30;0.30;;;19.50;56.50;;;;;;5074321;28;20093;-64
2022/02/03 16:55:05;;;;;;;0.52;0.25;;;19.50;56.60;;;;;;5075034;28;20028;-63
2022/02/03 16:57:30;;;;;;;0.30;0.30;;;19.50;56.50;;;;;;5077013;28;20017;-64
2022/02/03 17:00:00;;;;;;;0.15;0.15;;;19.60;56.60;;;;;;5095302;28;20028;-64
2022/02/03 17:02:26;;;;;;;0.15;0.10;;;19.50;56.40;;;;;;5095149;28;20020;-64
2022/02/03 17:04:52;;;;;;;0.15;0.15;;;19.60;56.50;;;;;;5094742;28;20031;-64
2022/02/03 17:07:18;;;;;;;0.20;0.20;;;19.60;56.50;;;;;;5094046;28;20024;-64
2022/02/03 17:09:44;;;;;;;0.20;0.20;;;19.60;56.50;;;;;;5093794;28;20099;-64
2022/02/03 17:12:09;;;;;;;0.45;0.20;;;19.60;56.50;;;;;;5095198;28;20024;-64
2022/02/03 17:14:35;;;;;;;0.32;0.30;;;19.60;56.40;;;;;;5093643;28;20024;-64
2022/02/03 17:17:02;;;;;;;0.20;0.20;;;19.60;56.40;;;;;;5093625;28;20027;-64
2022/02/03 17:19:27;;;;;;;0.17;0.15;;;19.60;56.40;;;;;;5093928;28;20486;-64
2022/02/03 17:21:53;;;;;;;0.20;0.17;;;19.60;56.40;;;;;;5093580;28;20020;-64
2022/02/03 17:24:19;;;;;;;0.17;0.17;;;19.60;56.40;;;;;;5094911;28;20027;-64
2022/02/03 17:29:24;;;;;;;0.30;0.13;;;19.60;56.40;;;;;;5084892;28;20044;-64
2022/02/03 17:32:16;;;;;;;0.35;0.20;;;19.60;56.40;;;;;;5083004;28;20528;-64
2022/02/03 18:09:56;;;;;;;6.95;3.30;;;19.70;56.90;;;;;;5031550;28;20164;-71
2022/02/03 18:36:09;;;;;;;7.78;2.92;;;20.20;56.80;;;;;;5028665;28;19912;-71
2022/02/03 18:47:48;;;;;;;7.25;3.55;;;20.40;57.00;;;;;;5092591;28;20546;-70
2022/02/03 18:52:14;;;;;;;6.13;3.63;;;20.50;57.10;;;;;;5073359;28;20060;-70
2022/02/03 19:56:49;;;;;;;8.70;4.72;;;20.90;56.30;;;;;;5039678;28;20084;-68
2022/02/03 20:11:52;;;;;;;10.57;4.95;;;20.90;56.20;;;;;;5090519;28;20090;-67
2022/02/03 20:14:19;;;;;;;7.55;4.15;;;20.90;56.20;;;;;;5092166;28;20429;-68
2022/02/03 20:16:45;;;;;;;9.25;4.13;;;20.90;56.20;;;;;;5074250;28;20027;-67
2022/02/03 20:19:11;;;;;;;7.43;4.07;;;20.90;56.20;;;;;;5074163;28;20028;-67
2022/02/03 20:21:38;;;;;;;8.63;4.28;;;20.90;56.20;;;;;;5092082;28;20103;-67
2022/02/03 20:24:05;;;;;;;8.02;4.95;;;20.90;56.10;;;;;;5074332;28;20028;-68
2022/02/03 20:26:31;;;;;;;11.13;4.50;;;20.90;56.20;;;;;;5091686;28;20020;-68
2022/02/03 20:28:57;;;;;;;8.98;4.30;;;20.90;56.10;;;;;;5089994;28;20072;-67
2022/02/03 20:31:23;;;;;;;9.23;4.43;;;20.90;56.20;;;;;;5091070;28;20039;-68
2022/02/03 20:33:48;;;;;;;10.18;4.82;;;20.90;56.10;;;;;;5090771;28;20024;-68
2022/02/03 20:36:14;;;;;;;9.07;4.40;;;20.90;56.10;;;;;;5073943;28;20020;-67
2022/02/03 20:38:40;;;;;;;6.75;4.03;;;20.90;56.10;;;;;;5090805;28;20032;-67
2022/02/03 20:41:05;;;;;;;9.20;4.30;;;20.90;56.10;;;;;;5090108;28;20031;-67
2022/02/03 20:43:31;;;;;;;12.02;4.30;;;20.90;56.10;;;;;;5090985;28;20031;-68
2022/02/03 20:45:57;;;;;;;10.52;4.72;;;20.90;56.20;;;;;;5091720;28;20031;-68
2022/02/03 20:48:22;;;;;;;7.25;4.32;;;20.90;56.10;;;;;;5091865;28;20024;-68
2022/02/03 20:50:49;;;;;;;6.85;4.18;;;20.90;57.20;;;;;;5076539;28;20020;-67
2022/02/03 20:53:15;;;;;;;7.20;4.15;;;20.90;56.20;;;;;;5072311;28;20023;-67
2022/02/03 20:55:45;;;;;;;7.60;3.72;;;20.90;56.10;;;;;;5073747;28;20032;-67
2022/02/03 20:58:14;;;;;;;6.30;4.03;;;20.90;56.10;;;;;;5081399;28;20028;-67
2022/02/03 21:00:48;;;;;;;7.80;3.70;;;20.90;56.20;;;;;;5095268;28;20021;-67
2022/02/03 21:05:43;;;;;;;9.82;3.78;;;20.90;56.20;;;;;;5094392;28;20474;-68
2022/02/03 21:08:09;;;;;;;7.00;3.72;;;20.90;56.20;;;;;;5095201;28;20020;-68
2022/02/03 21:10:35;;;;;;;7.05;3.47;;;20.90;56.20;;;;;;5094983;28;20012;-67
2022/02/03 21:13:00;;;;;;;5.55;3.50;;;20.80;56.10;;;;;;5095119;28;20051;-67
2022/02/03 21:15:32;;;;;;;8.07;3.95;;;20.90;56.20;;;;;;5095251;28;20470;-68
2022/02/03 21:18:01;;;;;;;6.13;3.75;;;20.90;56.20;;;;;;5093678;28;20024;-68
2022/02/03 21:20:27;;;;;;;6.68;3.92;;;20.90;56.20;;;;;;5087158;28;20035;-68
2022/02/03 21:22:53;;;;;;;7.13;3.80;;;20.90;56.30;;;;;;5072548;28;20032;-68
2022/02/03 21:27:46;;;;;;;5.65;3.20;;;20.90;56.30;;;;;;5090859;28;20030;-67
2022/02/03 21:30:13;;;;;;;6.28;3.13;;;20.90;56.40;;;;;;5090496;28;20119;-67
2022/02/03 21:32:39;;;;;;;5.82;3.47;;;20.90;56.30;;;;;;5094453;28;20024;-67
2022/02/03 21:35:06;;;;;;;7.88;4.05;;;20.90;56.30;;;;;;5093482;28;20070;-67
2022/02/03 21:37:32;;;;;;;7.72;3.15;;;20.90;56.30;;;;;;5094513;28;20020;-68
2022/02/03 21:39:58;;;;;;;7.38;3.40;;;20.90;56.30;;;;;;5093205;28;20099;-67
2022/02/03 21:42:23;;;;;;;6.53;3.35;;;20.90;56.30;;;;;;5093193;28;20039;-68
2022/02/03 21:44:49;;;;;;;7.88;3.40;;;20.90;56.30;;;;;;5094722;28;20017;-67
2022/02/03 21:47:14;;;;;;;5.32;3.15;;;20.90;56.30;;;;;;5094226;28;20021;-68
2022/02/03 21:49:40;;;;;;;5.07;3.55;;;20.90;56.40;;;;;;5088611;28;20035;-68
2022/02/03 21:52:06;;;;;;;6.25;3.35;;;20.90;56.40;;;;;;5056224;28;20033;-68
2022/02/03 21:54:35;;;;;;;7.32;3.03;;;20.90;56.40;;;;;;5073992;28;20510;-68
2022/02/03 21:57:02;;;;;;;5.57;3.30;;;20.90;56.40;;;;;;5078725;28;20178;-68
2022/02/03 21:59:27;;;;;;;4.55;2.60;;;20.90;56.40;;;;;;5075917;28;20024;-68
2022/02/03 22:01:53;;;;;;;7.55;3.03;;;20.90;56.40;;;;;;5074279;28;20021;-67
2022/02/03 22:04:19;;;;;;;5.22;3.08;;;20.90;56.50;;;;;;5073999;28;20027;-68
2022/02/03 22:06:45;;;;;;;5.38;2.95;;;20.90;56.50;;;;;;5074829;28;20391;-67
2022/02/03 22:09:11;;;;;;;6.57;3.50;;;20.90;56.40;;;;;;5075369;28;20394;-68
2022/02/03 22:11:38;;;;;;;6.05;3.00;;;20.90;56.50;;;;;;5076876;28;20031;-68
2022/02/03 22:14:05;;;;;;;8.23;3.22;;;20.90;56.40;;;;;;5074891;28;20028;-67
2022/02/03 22:16:32;;;;;;;4.72;3.10;;;21.00;56.50;;;;;;5075648;28;20509;-67
2022/02/03 22:18:59;;;;;;;6.68;3.30;;;20.90;56.50;;;;;;5076170;28;20020;-67
2022/02/03 22:21:34;;;;;;;4.90;2.88;;;20.90;56.40;;;;;;5075415;28;20024;-67
2022/02/03 22:38:33;;;;;;;5.55;3.00;;;21.00;56.50;;;;;;5092321;28;20065;-68
2022/02/03 22:50:47;;;;;;;3.90;2.57;;;20.90;56.70;;;;;;5086056;28;20024;-68
2022/02/03 22:53:13;;;;;;;4.22;2.90;;;20.90;56.70;;;;;;5086444;28;20036;-68
2022/02/03 22:55:39;;;;;;;4.25;2.33;;;20.90;56.60;;;;;;5087602;28;20012;-68
2022/02/03 23:00:58;;;;;;;4.60;2.53;;;21.00;56.70;;;;;;5089244;28;20391;-68
2022/02/03 23:03:27;;;;;;;6.93;2.58;;;21.00;56.70;;;;;;5091177;28;20027;-68
2022/02/03 23:05:53;;;;;;;5.95;2.70;;;21.00;56.80;;;;;;5074451;28;20020;-68
2022/02/03 23:08:26;;;;;;;3.83;2.58;;;20.90;56.70;;;;;;5092741;28;20023;-68
2022/02/03 23:16:06;;;;;;;3.58;2.30;;;21.00;56.80;;;;;;5091031;28;20027;-67
2022/02/03 23:21:39;;;;;;;4.57;2.40;;;21.00;56.80;;;;;;5091258;28;20394;-67
2022/02/03 23:23:57;;;;;;;4.57;2.45;;;20.90;56.80;;;;;;5091249;28;20027;-68
2022/02/03 23:26:26;;;;;;;5.38;2.80;;;20.90;56.80;;;;;;5092611;28;20013;-67
2022/02/03 23:28:57;;;;;;;4.15;2.42;;;20.90;56.80;;;;;;5091480;28;20497;-68
2022/02/03 23:31:24;;;;;;;4.55;2.63;;;20.90;56.80;;;;;;5091417;28;20024;-68
2022/02/03 23:33:50;;;;;;;3.65;2.30;;;20.90;56.80;;;;;;5091662;28;20513;-67
2022/02/03 23:36:16;;;;;;;5.82;2.70;;;20.90;56.80;;;;;;5092267;28;20020;-68
